createdAt,value
2019-05-17T00:01:46.919Z,92.92
2019-05-17T00:06:51.422Z,95.34
2019-05-17T00:11:56.852Z,94.36
2019-05-17T00:17:01.388Z,92.96
2019-05-17T00:22:07.434Z,92.56
2019-05-17T00:27:12.053Z,93.72
2019-05-17T00:32:17.156Z,93.59
2019-05-17T00:37:21.610Z,93.70
2019-05-17T00:42:26.424Z,93.41
2019-05-17T00:47:31.043Z,93.05
2019-05-17T00:52:36.899Z,93.03
2019-05-17T00:57:41.556Z,91.37
2019-05-17T01:02:46.893Z,91.43
2019-05-17T01:07:51.451Z,91.87
2019-05-17T01:12:57.531Z,91.35
2019-05-17T01:18:02.183Z,91.91
2019-05-17T01:23:07.646Z,91.52
2019-05-17T01:28:13.271Z,92.50
2019-05-17T01:33:17.711Z,92.65
2019-05-17T01:38:22.115Z,92.67
2019-05-17T01:43:27.324Z,93.13
2019-05-17T01:48:32.809Z,92.37
2019-05-17T01:53:37.177Z,92.26
2019-05-17T01:58:41.584Z,91.90
2019-05-17T02:03:46.917Z,92.51
2019-05-17T02:08:51.768Z,92.76
2019-05-17T02:13:56.278Z,93.05
2019-05-17T02:19:00.604Z,93.26
2019-05-17T02:24:07.762Z,92.61
2019-05-17T02:29:12.070Z,92.39
2019-05-17T02:34:16.522Z,93.02
2019-05-17T02:39:23.269Z,93.25
2019-05-17T02:44:26.908Z,92.71
2019-05-17T02:49:33.111Z,92.92
2019-05-17T02:54:37.357Z,92.80
2019-05-17T02:59:43.312Z,92.86
2019-05-17T03:04:47.861Z,93.16
2019-05-17T03:09:53.407Z,95.22
2019-05-17T03:14:58.320Z,93.44
2019-05-17T03:20:04.247Z,93.31
2019-05-17T03:25:08.921Z,94.09
2019-05-17T03:30:18.867Z,93.92
2019-05-17T03:35:25.678Z,93.46
2019-05-17T03:40:58.453Z,93.20
2019-05-17T03:45:33.947Z,92.95
2019-05-17T03:50:38.357Z,93.74
2019-05-17T03:55:43.113Z,92.84
2019-05-17T04:00:47.553Z,91.92
2019-05-17T04:05:52.898Z,91.12
2019-05-17T04:10:57.615Z,93.13
2019-05-17T04:16:05.912Z,90.78
2019-05-17T04:21:08.088Z,90.78
2019-05-17T04:26:13.526Z,90.55
2019-05-17T04:31:18.201Z,91.65
2019-05-17T04:36:22.783Z,89.03
2019-05-17T04:41:44.688Z,90.69
2019-05-17T04:46:33.243Z,87.97
2019-05-17T04:51:37.683Z,86.39
2019-05-17T04:56:42.706Z,84.94
2019-05-17T05:01:47.855Z,83.70
2019-05-17T05:06:52.837Z,84.32
2019-05-17T05:12:02.617Z,81.85
2019-05-17T05:17:05.218Z,84.19
2019-05-17T05:22:09.552Z,83.83
2019-05-17T05:27:13.957Z,79.67
2019-05-17T05:32:18.309Z,79.97
2019-05-17T05:37:23.260Z,78.87
2019-05-17T05:42:27.817Z,77.69
2019-05-17T05:47:32.417Z,75.51
2019-05-17T05:52:36.851Z,76.10
2019-05-17T05:57:41.965Z,75.27
2019-05-17T06:02:46.877Z,74.75
2019-05-17T06:07:52.251Z,74.35
2019-05-17T06:12:56.881Z,75.15
2019-05-17T06:18:03.034Z,70.83
2019-05-17T06:23:07.357Z,72.10
2019-05-17T06:28:11.808Z,72.79
2019-05-17T06:33:29.918Z,75.27
2019-05-17T06:38:22.583Z,73.06
2019-05-17T06:43:26.988Z,73.44
2019-05-17T06:48:32.087Z,75.62
2019-05-17T06:53:37.488Z,73.94
2019-05-17T06:58:41.873Z,74.34
2019-05-17T07:03:46.267Z,75.90
2019-05-17T07:08:50.678Z,75.69
2019-05-17T07:13:55.051Z,74.07
2019-05-17T07:18:59.802Z,73.67
2019-05-17T07:24:04.364Z,73.19
2019-05-17T07:29:10.048Z,72.66
2019-05-17T07:34:15.627Z,73.16
2019-05-17T07:39:20.480Z,71.83
2019-05-17T07:44:24.942Z,70.90
2019-05-17T07:49:29.475Z,71.74
2019-05-17T07:54:34.292Z,69.49
2019-05-17T07:59:39.710Z,74.04
2019-05-17T08:04:44.212Z,70.88
2019-05-17T08:09:50.626Z,69.82
2019-05-17T08:14:56.301Z,67.93
2019-05-17T08:20:00.972Z,68.20
2019-05-17T08:25:13.057Z,66.26
2019-05-17T08:30:23.821Z,66.65
2019-05-17T08:35:37.264Z,66.90
2019-05-17T08:40:43.706Z,67.64
2019-05-17T08:45:59.299Z,65.93
2019-05-17T08:51:10.568Z,62.34
2019-05-17T08:56:22.879Z,62.34
2019-05-17T09:01:41.731Z,64.81
2019-05-17T09:06:50.292Z,63.97
2019-05-17T09:11:54.216Z,65.09
2019-05-17T09:17:00.368Z,62.85
2019-05-17T09:22:04.858Z,62.37
2019-05-17T09:27:10.159Z,61.44
2019-05-17T09:32:15.536Z,60.53
2019-05-17T09:37:22.485Z,59.74
2019-05-17T09:42:25.960Z,59.36
2019-05-17T09:47:30.313Z,57.87
2019-05-17T09:52:34.626Z,58.07
2019-05-17T09:57:40.870Z,57.37
2019-05-17T10:02:45.564Z,57.33
2019-05-17T10:07:50.695Z,57.87
2019-05-17T10:12:55.284Z,59.13
2019-05-17T10:18:00.579Z,57.04
2019-05-17T10:23:05.217Z,56.21
2019-05-17T10:28:10.178Z,55.98
2019-05-17T10:33:14.702Z,54.84
2019-05-17T10:38:19.505Z,54.34
2019-05-17T10:43:24.091Z,56.13
2019-05-17T10:48:30.126Z,55.66
2019-05-17T10:53:34.677Z,55.33
2019-05-17T10:58:39.948Z,54.88
2019-05-17T11:03:44.615Z,56.98
2019-05-17T11:08:50.167Z,57.65
2019-05-17T11:13:54.636Z,56.78
2019-05-17T11:18:59.052Z,56.54
2019-05-17T11:24:03.472Z,54.45
2019-05-17T11:29:07.823Z,54.13
2019-05-17T11:34:12.234Z,54.14
2019-05-17T11:39:16.552Z,53.63
2019-05-17T11:44:20.923Z,54.45
2019-05-17T11:49:25.261Z,54.80
2019-05-17T11:54:29.683Z,55.87
2019-05-17T11:59:34.042Z,55.41
2019-05-17T12:04:38.464Z,55.21
2019-05-17T12:09:42.811Z,55.62
2019-05-17T12:14:47.162Z,55.89
2019-05-17T12:19:51.577Z,55.07
2019-05-17T12:24:56.111Z,53.54
2019-05-17T12:30:00.505Z,54.38
2019-05-17T12:35:05.449Z,54.11
2019-05-17T12:40:10.564Z,53.39
2019-05-17T12:45:14.999Z,55.33
2019-05-17T12:50:19.964Z,54.85
2019-05-17T12:55:24.304Z,53.97
2019-05-17T13:00:28.710Z,54.47
2019-05-17T13:05:33.075Z,54.82
2019-05-17T13:10:37.418Z,55.19
2019-05-17T13:15:41.836Z,55.19
2019-05-17T13:20:46.270Z,55.10
2019-05-17T13:25:50.657Z,55.48
2019-05-17T13:30:55.009Z,55.11
2019-05-17T13:35:59.402Z,52.95
2019-05-17T13:41:03.791Z,53.66
2019-05-17T13:46:08.217Z,53.21
2019-05-17T13:51:12.549Z,53.20
2019-05-17T13:56:17.004Z,52.15
2019-05-17T14:01:21.358Z,53.04
2019-05-17T14:06:25.724Z,53.23
2019-05-17T14:11:30.077Z,53.34
2019-05-17T14:16:34.889Z,52.13
2019-05-17T14:21:39.433Z,53.56
2019-05-17T14:26:43.782Z,54.18
2019-05-17T14:31:48.201Z,54.05
2019-05-17T14:36:52.558Z,54.26
2019-05-17T14:41:56.936Z,53.75
2019-05-17T14:47:01.304Z,54.75
2019-05-17T14:52:05.668Z,53.61
2019-05-17T14:57:10.216Z,53.54
2019-05-17T15:02:14.642Z,54.28
2019-05-17T15:07:19.003Z,54.94
2019-05-17T15:12:28.432Z,54.75
2019-05-17T15:17:29.439Z,55.12
2019-05-17T15:22:33.791Z,55.69
2019-05-17T15:27:38.952Z,55.34
2019-05-17T15:32:43.379Z,54.72
2019-05-17T15:37:47.835Z,54.65
2019-05-17T15:42:52.184Z,54.91
2019-05-17T15:47:57.005Z,53.63
2019-05-17T15:53:02.539Z,53.33
2019-05-17T15:58:06.992Z,53.24
2019-05-17T16:03:11.473Z,52.79
2019-05-17T16:08:15.839Z,52.84
2019-05-17T16:13:20.258Z,53.65
2019-05-17T16:18:24.885Z,53.13
2019-05-17T16:23:29.230Z,53.55
2019-05-17T16:28:33.674Z,53.70
2019-05-17T16:33:38.126Z,52.20
2019-05-17T16:38:42.513Z,52.58
2019-05-17T16:43:46.919Z,52.55
2019-05-17T16:48:51.340Z,51.65
2019-05-17T16:53:55.685Z,49.97
2019-05-17T16:59:00.082Z,50.45
2019-05-17T17:04:04.740Z,50.76
2019-05-17T17:09:09.173Z,50.33
2019-05-17T17:14:13.535Z,50.72
2019-05-17T17:19:18.015Z,50.71
2019-05-17T17:24:22.368Z,50.86
2019-05-17T17:29:26.815Z,51.26
2019-05-17T17:34:31.151Z,51.97
2019-05-17T17:39:36.578Z,51.91
2019-05-17T17:44:40.982Z,51.91
2019-05-17T17:49:45.334Z,52.03
2019-05-17T17:54:49.709Z,53.97
2019-05-17T17:59:55.689Z,53.97
2019-05-17T18:05:00.385Z,53.50
2019-05-17T18:10:06.518Z,54.46
2019-05-17T18:15:12.909Z,54.72
2019-05-17T18:20:17.283Z,55.34
2019-05-17T18:25:21.718Z,55.31
2019-05-17T18:30:41.237Z,56.23
2019-05-17T18:35:48.638Z,56.24
2019-05-17T18:40:52.983Z,56.97
2019-05-17T18:45:57.382Z,56.90
2019-05-17T18:51:01.885Z,57.24
2019-05-17T18:56:06.240Z,57.99
2019-05-17T19:01:11.640Z,58.53
2019-05-17T19:06:16.013Z,59.45
2019-05-17T19:11:20.366Z,60.20
2019-05-17T19:16:24.679Z,60.40
2019-05-17T19:21:29.232Z,61.22
2019-05-17T19:26:33.600Z,62.46
2019-05-17T19:31:37.932Z,63.12
2019-05-17T19:36:42.281Z,63.05
2019-05-17T19:41:49.474Z,63.54
2019-05-17T19:46:53.852Z,63.69
2019-05-17T19:51:58.223Z,64.22
2019-05-17T19:57:02.592Z,64.42
2019-05-17T20:02:06.940Z,64.70
2019-05-17T20:07:11.340Z,64.85
2019-05-17T20:12:15.674Z,65.30
2019-05-17T20:17:20.085Z,65.61
2019-05-17T20:22:24.532Z,65.99
2019-05-17T20:27:29.040Z,66.29
2019-05-17T20:32:33.483Z,66.38
2019-05-17T20:37:38.425Z,67.69
2019-05-17T20:42:42.764Z,68.67
2019-05-17T20:47:50.327Z,68.00
2019-05-17T20:52:56.342Z,68.28
2019-05-17T20:58:00.776Z,68.55
2019-05-17T21:03:05.472Z,68.67
2019-05-17T21:08:10.037Z,69.43
2019-05-17T21:13:14.424Z,69.41
2019-05-17T21:18:18.833Z,69.49
2019-05-17T21:23:24.291Z,69.88
2019-05-17T21:28:30.311Z,69.92
2019-05-17T21:33:34.729Z,72.94
2019-05-17T21:38:39.059Z,73.85
2019-05-17T21:43:44.753Z,73.82
2019-05-17T21:48:49.382Z,73.04
2019-05-17T21:53:53.738Z,72.55
2019-05-17T21:58:58.124Z,73.42
2019-05-17T22:04:02.515Z,73.79
2019-05-17T22:09:07.787Z,74.63
2019-05-17T22:14:13.628Z,74.83
2019-05-17T22:19:17.993Z,76.35
2019-05-17T22:24:22.381Z,76.69
2019-05-17T22:29:26.882Z,77.08
2019-05-17T22:34:31.234Z,77.20
2019-05-17T22:39:35.612Z,78.33
2019-05-17T22:44:40.049Z,78.19
2019-05-17T22:49:44.396Z,79.56
2019-05-17T22:54:48.776Z,78.43
2019-05-17T22:59:53.119Z,78.37
2019-05-17T23:04:57.464Z,79.13
2019-05-17T23:10:01.899Z,79.85
2019-05-17T23:15:07.641Z,80.10
2019-05-17T23:20:12.830Z,80.57
2019-05-17T23:25:17.211Z,81.22
2019-05-17T23:30:22.576Z,82.30
2019-05-17T23:35:27.085Z,81.68
2019-05-17T23:40:32.308Z,82.24
2019-05-17T23:45:38.602Z,82.10
2019-05-17T23:50:43.220Z,82.44
2019-05-17T23:55:48.600Z,82.58
